Time;durP1;ratioP1;P1;durP2;ratioP2;P2;SDS_P1;SDS_P2;PMS_P1;PMS_P2;Temp;Humidity;BMP_temperature;BMP_pressure;BME280_temperature;BME280_humidity;BME280_pressure;Samples;Min_cycle;Max_cycle;Signal;HPM_P1;HPM_P2
2022/11/04 00:01:05;;;;;;;273.90;38.03;;;3.60;99.90;;;;;;4163019;28;20259;-62
2022/11/04 00:03:06;;;;;;;217.37;38.97;;;3.60;99.90;;;;;;4146630;28;20334;-62
2022/11/04 00:05:07;;;;;;;335.33;38.50;;;3.70;99.90;;;;;;4163900;28;20337;-65
2022/11/04 00:08:22;;;;;;;372.13;40.97;;;3.70;99.90;;;;;;4162704;28;20329;-64
2022/11/04 00:09:30;;;;;;;519.63;46.67;;;3.80;99.90;;;;;;4163598;28;20286;-62
2022/11/04 00:13:51;;;;;;;353.77;42.43;;;3.70;99.90;;;;;;4164386;28;20354;-63
2022/11/04 00:18:12;;;;;;;403.83;39.23;;;3.60;99.90;;;;;;4148947;28;20353;-62
2022/11/04 00:29:35;;;;;;;361.53;41.37;;;3.50;99.90;;;;;;4162550;28;20725;-63
2022/11/04 00:33:57;;;;;;;249.03;36.60;;;3.50;99.90;;;;;;4155626;28;21323;-63
2022/11/04 00:35:58;;;;;;;112.57;33.17;;;3.50;99.90;;;;;;4146443;28;20680;-63
2022/11/04 00:37:59;;;;;;;355.03;42.93;;;3.60;99.90;;;;;;4145166;28;20276;-63
2022/11/04 00:40:00;;;;;;;248.87;38.43;;;3.70;99.90;;;;;;4162270;28;20274;-62
2022/11/04 00:42:02;;;;;;;309.47;43.93;;;3.70;99.90;;;;;;4161341;28;20305;-63
2022/11/04 00:44:04;;;;;;;313.47;40.87;;;3.70;99.90;;;;;;4148134;28;20280;-64
2022/11/04 00:46:05;;;;;;;137.67;33.63;;;3.70;99.90;;;;;;4145714;28;20342;-63
2022/11/04 00:48:06;;;;;;;127.77;31.03;;;3.70;99.90;;;;;;4146818;28;20322;-66
2022/11/04 00:50:08;;;;;;;165.90;36.53;;;3.70;99.90;;;;;;4144953;28;20362;-62
2022/11/04 00:52:09;;;;;;;337.70;43.30;;;3.70;99.90;;;;;;4146378;28;20834;-61
2022/11/04 00:54:10;;;;;;;359.53;47.30;;;3.70;99.90;;;;;;4145585;28;20259;-64
2022/11/04 00:56:11;;;;;;;138.23;32.77;;;3.70;99.90;;;;;;4145767;28;20263;-65
2022/11/04 00:58:12;;;;;;;113.93;34.40;;;3.70;99.90;;;;;;4146286;28;20271;-63
2022/11/04 01:00:14;;;;;;;146.53;34.97;;;3.70;99.90;;;;;;4145108;28;20714;-62
2022/11/04 01:02:15;;;;;;;112.73;34.10;;;3.70;99.90;;;;;;4145399;28;20621;-65
2022/11/04 01:04:16;;;;;;;161.93;36.47;;;3.80;99.90;;;;;;4145013;28;20267;-62
2022/11/04 01:06:19;;;;;;;185.33;36.30;;;3.80;99.90;;;;;;4145969;28;20703;-63
2022/11/04 01:08:20;;;;;;;210.03;37.80;;;3.70;99.90;;;;;;4146308;28;20664;-64
2022/11/04 01:10:21;;;;;;;170.87;35.23;;;3.80;99.90;;;;;;4145842;28;20759;-63
2022/11/04 01:12:22;;;;;;;326.90;42.50;;;3.80;99.90;;;;;;4144824;28;20299;-66
2022/11/04 01:14:23;;;;;;;140.67;34.17;;;3.80;99.90;;;;;;4128708;28;20280;-67
2022/11/04 01:16:26;;;;;;;177.90;35.67;;;3.80;99.90;;;;;;4145197;28;20344;-66
2022/11/04 01:18:27;;;;;;;252.83;39.20;;;3.80;99.90;;;;;;4146329;28;20329;-63
2022/11/04 01:20:28;;;;;;;155.77;33.77;;;3.70;99.90;;;;;;4144526;28;20275;-65
2022/11/04 01:22:29;;;;;;;256.93;44.77;;;3.70;99.90;;;;;;4145294;28;20311;-62
2022/11/04 01:24:30;;;;;;;136.37;33.83;;;3.70;99.90;;;;;;4144341;28;20247;-64
2022/11/04 01:26:32;;;;;;;80.00;31.10;;;3.80;99.90;;;;;;4145943;28;20268;-66
2022/11/04 01:28:33;;;;;;;330.37;37.73;;;3.90;99.90;;;;;;4145693;28;20310;-64
2022/11/04 01:30:37;;;;;;;235.80;35.30;;;3.80;99.90;;;;;;4156927;28;20694;-67
2022/11/04 01:32:38;;;;;;;82.53;31.63;;;3.90;99.90;;;;;;4149684;28;20349;-63
2022/11/04 01:34:39;;;;;;;206.33;36.30;;;3.90;99.90;;;;;;4144343;28;20338;-63
2022/11/04 01:36:41;;;;;;;380.40;41.20;;;3.90;99.90;;;;;;4145368;28;20280;-63
2022/11/04 01:38:42;;;;;;;295.03;37.77;;;3.90;99.90;;;;;;4144969;28;20283;-64
2022/11/04 01:40:43;;;;;;;336.93;40.93;;;3.80;99.90;;;;;;4146015;28;20267;-61
2022/11/04 01:42:44;;;;;;;130.03;29.83;;;3.70;99.90;;;;;;4144264;28;20279;-66
2022/11/04 01:44:49;;;;;;;320.67;37.20;;;3.80;99.90;;;;;;4145330;28;20443;-64
2022/11/04 01:46:52;;;;;;;381.57;40.77;;;3.80;99.90;;;;;;4144773;28;20271;-64
2022/11/04 01:49:16;;;;;;;394.40;38.43;;;3.70;99.90;;;;;;4145321;28;20373;-68
2022/11/04 01:51:18;;;;;;;399.80;39.63;;;3.70;99.90;;;;;;4130783;28;20268;-64
2022/11/04 01:53:35;;;;;;;497.43;40.47;;;3.60;99.90;;;;;;4145079;28;20291;-62
2022/11/04 01:55:41;;;;;;;413.83;37.00;;;3.60;99.90;;;;;;4153364;28;20837;-66
2022/11/04 01:57:46;;;;;;;332.03;36.27;;;3.60;99.90;;;;;;4145376;28;20831;-67
2022/11/04 01:59:47;;;;;;;487.87;46.47;;;3.50;99.90;;;;;;4144885;28;20271;-66
2022/11/04 02:01:48;;;;;;;640.53;50.47;;;3.50;99.90;;;;;;4145705;28;20318;-64
2022/11/04 02:03:54;;;;;;;472.73;41.13;;;3.50;99.90;;;;;;4144661;28;20271;-62
2022/11/04 02:05:56;;;;;;;204.70;31.10;;;3.40;99.90;;;;;;4145821;28;20275;-64
2022/11/04 02:08:01;;;;;;;351.03;39.90;;;3.40;99.90;;;;;;4143198;28;20267;-62
2022/11/04 02:10:02;;;;;;;324.83;36.03;;;3.50;99.90;;;;;;4145320;28;20318;-66
2022/11/04 02:14:25;;;;;;;307.53;35.33;;;3.50;99.90;;;;;;4145732;28;20814;-66
2022/11/04 02:16:47;;;;;;;71.10;27.50;;;3.60;99.90;;;;;;4144533;28;20255;-63
2022/11/04 02:18:57;;;;;;;170.53;30.27;;;3.60;99.90;;;;;;4145383;28;20735;-64
2022/11/04 02:21:12;;;;;;;129.05;30.35;;;3.60;99.90;;;;;;4150269;28;20643;-64
2022/11/04 02:23:39;;;;;;;104.90;30.77;;;3.70;99.90;;;;;;4145065;28;20030;-67
2022/11/04 02:25:59;;;;;;;108.10;33.20;;;3.70;99.90;;;;;;4125851;28;20317;-64
2022/11/04 02:28:21;;;;;;;102.93;31.50;;;3.70;99.90;;;;;;4159827;28;20279;-63
2022/11/04 02:30:22;;;;;;;59.53;27.80;;;3.70;99.90;;;;;;4160592;28;20270;-66
2022/11/04 02:32:38;;;;;;;71.63;30.87;;;3.80;99.90;;;;;;4160604;28;20706;-63
2022/11/04 02:35:00;;;;;;;63.17;27.67;;;3.90;99.90;;;;;;4160420;28;20770;-63
2022/11/04 02:37:04;;;;;;;56.93;27.03;;;3.90;99.90;;;;;;4161674;28;20266;-63
2022/11/04 02:39:20;;;;;;;64.57;29.60;;;4.00;99.90;;;;;;4159885;28;20271;-63
2022/11/04 02:41:24;;;;;;;109.47;32.67;;;4.00;99.90;;;;;;4160884;28;20279;-64
2022/11/04 02:43:51;;;;;;;469.73;44.23;;;4.00;99.90;;;;;;4160527;28;20405;-67
2022/11/04 02:46:05;;;;;;;163.83;35.57;;;4.00;99.90;;;;;;4160935;28;20275;-67
2022/11/04 02:48:28;;;;;;;70.60;28.17;;;3.90;99.90;;;;;;4143953;28;20299;-67
2022/11/04 02:50:37;;;;;;;130.03;32.47;;;3.90;99.90;;;;;;4155375;28;20278;-65
2022/11/04 02:52:54;;;;;;;208.90;35.37;;;3.90;99.90;;;;;;4154984;28;20303;-63
2022/11/04 02:55:37;;;;;;;233.17;34.63;;;3.90;99.90;;;;;;4144596;28;20724;-65
2022/11/04 02:57:41;;;;;;;280.87;38.70;;;3.90;99.90;;;;;;4110891;28;20267;-68
2022/11/04 02:59:51;;;;;;;94.30;30.00;;;4.00;99.90;;;;;;4144144;28;20961;-66
2022/11/04 03:01:55;;;;;;;353.73;41.10;;;3.90;99.90;;;;;;4144590;28;20279;-62
2022/11/04 03:04:02;;;;;;;67.13;28.77;;;4.00;99.90;;;;;;4143852;28;20104;-67
2022/11/04 03:06:06;;;;;;;70.03;30.80;;;4.00;99.90;;;;;;4143692;28;20318;-64
2022/11/04 03:08:15;;;;;;;313.93;40.20;;;4.10;99.90;;;;;;4144362;28;20271;-63
2022/11/04 03:10:46;;;;;;;133.27;35.53;;;4.10;99.90;;;;;;4144289;28;20814;-63
2022/11/04 03:13:10;;;;;;;162.43;34.80;;;4.10;99.90;;;;;;4141802;28;20299;-63
2022/11/04 03:15:23;;;;;;;228.53;41.10;;;4.20;99.90;;;;;;4146166;28;20504;-64
2022/11/04 03:17:59;;;;;;;114.37;32.83;;;4.20;99.90;;;;;;4153616;28;20049;-67
2022/11/04 03:20:05;;;;;;;167.33;35.97;;;4.20;99.90;;;;;;4111220;28;20421;-63
2022/11/04 03:22:15;;;;;;;161.27;35.00;;;4.30;99.90;;;;;;4163299;28;20258;-64
2022/11/04 03:24:17;;;;;;;238.18;35.63;;;4.30;99.90;;;;;;4163663;28;20275;-69
2022/11/04 03:26:28;;;;;;;275.83;43.80;;;4.40;99.90;;;;;;4162553;28;20550;-68
2022/11/04 03:28:42;;;;;;;484.40;50.10;;;4.40;99.90;;;;;;4163655;28;20324;-67
2022/11/04 03:30:47;;;;;;;319.77;44.93;;;4.40;99.90;;;;;;4159200;28;20022;-65
2022/11/04 03:32:58;;;;;;;305.30;40.87;;;4.40;99.90;;;;;;4146868;28;20291;-67
2022/11/04 03:35:00;;;;;;;282.47;38.07;;;4.40;99.90;;;;;;4146800;28;20085;-63
2022/11/04 03:37:01;;;;;;;207.93;37.30;;;4.40;99.90;;;;;;4147033;28;20605;-63
2022/11/04 03:39:02;;;;;;;189.40;33.53;;;4.40;99.90;;;;;;4145931;28;20862;-68
2022/11/04 03:41:13;;;;;;;225.77;37.70;;;4.40;99.90;;;;;;4147960;28;20482;-64
2022/11/04 03:43:19;;;;;;;226.82;34.03;;;4.40;99.90;;;;;;4146578;28;20252;-64
2022/11/04 03:45:20;;;;;;;135.70;30.60;;;4.30;99.90;;;;;;4147084;28;20451;-63
2022/11/04 03:47:24;;;;;;;112.20;28.60;;;4.30;99.90;;;;;;4146432;28;20267;-63
2022/11/04 03:49:26;;;;;;;217.50;35.17;;;4.30;99.90;;;;;;4146770;28;20407;-66
2022/11/04 03:51:27;;;;;;;103.53;27.87;;;4.20;99.90;;;;;;4145895;28;20402;-64
2022/11/04 03:53:30;;;;;;;123.23;29.80;;;4.20;99.90;;;;;;4146969;28;20291;-63
2022/11/04 03:55:44;;;;;;;169.53;32.33;;;4.10;99.90;;;;;;4156575;28;20263;-63
2022/11/04 03:57:59;;;;;;;80.70;26.17;;;4.10;99.90;;;;;;4163311;28;20267;-61
2022/11/04 04:00:05;;;;;;;60.60;26.73;;;4.10;99.90;;;;;;4154192;28;20279;-63
2022/11/04 04:02:16;;;;;;;79.80;26.80;;;4.10;99.90;;;;;;4146770;28;20283;-64
2022/11/04 04:04:29;;;;;;;71.35;26.83;;;4.10;99.90;;;;;;4146355;28;20290;-66
2022/11/04 04:06:34;;;;;;;77.63;27.10;;;4.10;99.90;;;;;;4146666;28;20430;-63
2022/11/04 04:08:47;;;;;;;62.07;26.73;;;4.10;99.90;;;;;;4145766;28;20675;-64
2022/11/04 04:10:58;;;;;;;61.83;27.40;;;4.10;99.90;;;;;;4146074;28;20294;-65
2022/11/04 04:13:39;;;;;;;61.97;25.15;;;4.10;99.90;;;;;;4145897;28;20380;-66
2022/11/04 04:16:01;;;;;;;56.17;25.05;;;4.10;99.90;;;;;;4147407;28;20478;-64
2022/11/04 04:18:08;;;;;;;55.63;24.20;;;4.10;99.90;;;;;;4145317;28;20038;-66
2022/11/04 04:20:14;;;;;;;54.13;24.70;;;4.10;99.90;;;;;;4146622;28;20259;-63
2022/11/04 04:22:21;;;;;;;52.57;24.40;;;4.10;99.90;;;;;;4145441;28;20279;-67
2022/11/04 04:29:08;;;;;;;;;;;4.00;99.90;;;;;;4147851;28;20294;-64
2022/11/04 04:31:48;;;;;;;46.57;20.43;;;3.90;99.90;;;;;;4153014;28;19909;-67
2022/11/04 04:33:34;;;;;;;44.57;22.13;;;3.90;99.90;;;;;;4161491;28;20307;-63
2022/11/04 04:35:42;;;;;;;46.07;22.00;;;3.90;99.90;;;;;;4162228;28;20279;-65
2022/11/04 04:37:45;;;;;;;43.50;21.27;;;3.90;99.90;;;;;;4163095;28;20317;-61
2022/11/04 04:46:53;;;;;;;51.53;24.77;;;3.80;99.90;;;;;;4146669;28;20322;-65
2022/11/04 04:49:02;;;;;;;51.93;23.87;;;3.80;99.90;;;;;;4145218;28;20514;-66
2022/11/04 04:51:03;;;;;;;65.13;25.07;;;3.90;99.90;;;;;;4145729;28;20276;-62
2022/11/04 04:53:04;;;;;;;59.03;24.77;;;3.80;99.90;;;;;;4145521;28;20295;-61
2022/11/04 04:55:07;;;;;;;48.07;23.93;;;3.90;99.90;;;;;;4147650;28;20715;-62
2022/11/04 04:57:08;;;;;;;47.43;23.60;;;3.80;99.90;;;;;;4146620;28;20287;-64
2022/11/04 04:59:09;;;;;;;54.73;23.80;;;3.80;99.90;;;;;;4157226;28;20312;-64
2022/11/04 05:01:10;;;;;;;57.67;26.57;;;3.80;99.90;;;;;;4154536;28;20271;-64
2022/11/04 05:03:11;;;;;;;50.00;24.43;;;3.80;99.90;;;;;;4151490;28;20271;-64
2022/11/04 05:05:13;;;;;;;57.57;23.97;;;3.80;99.90;;;;;;4145338;28;20275;-66
2022/11/04 05:07:14;;;;;;;47.80;22.23;;;3.70;99.90;;;;;;4146197;28;20271;-64
2022/11/04 05:09:15;;;;;;;45.77;22.97;;;3.80;99.90;;;;;;4145665;28;20659;-65
2022/11/04 05:11:16;;;;;;;54.37;24.27;;;3.70;99.90;;;;;;4144646;28;20267;-71
2022/11/04 05:13:28;;;;;;;55.07;23.90;;;3.70;99.90;;;;;;4145338;28;20299;-64
2022/11/04 05:15:31;;;;;;;49.63;21.60;;;3.80;99.90;;;;;;4145000;28;20294;-70
2022/11/04 05:17:32;;;;;;;45.50;22.60;;;3.70;99.90;;;;;;4144977;28;20276;-70
2022/11/04 05:19:33;;;;;;;39.70;20.23;;;3.70;99.90;;;;;;4143790;28;20263;-63
2022/11/04 05:21:34;;;;;;;48.97;21.63;;;3.70;99.90;;;;;;4145912;28;20256;-62
2022/11/04 05:23:36;;;;;;;45.23;20.17;;;3.70;99.90;;;;;;4144090;28;20760;-68
2022/11/04 05:25:38;;;;;;;50.43;23.17;;;3.70;99.90;;;;;;4147089;28;20408;-70
2022/11/04 05:27:39;;;;;;;50.47;21.77;;;3.60;99.90;;;;;;4147449;28;20263;-65
2022/11/04 05:29:41;;;;;;;49.20;22.57;;;3.70;99.90;;;;;;4150245;28;20275;-63
2022/11/04 05:31:42;;;;;;;38.93;19.90;;;3.70;99.90;;;;;;4149299;28;20333;-64
2022/11/04 05:33:43;;;;;;;36.43;19.13;;;3.60;99.90;;;;;;4152751;28;20302;-68
2022/11/04 05:35:44;;;;;;;40.97;20.30;;;3.60;99.90;;;;;;4150265;28;20282;-63
2022/11/04 05:37:45;;;;;;;35.20;19.70;;;3.60;99.90;;;;;;4151195;28;20313;-63
2022/11/04 05:39:46;;;;;;;41.33;19.40;;;3.70;99.90;;;;;;4150272;28;20350;-63
2022/11/04 05:41:47;;;;;;;42.10;20.97;;;3.70;99.90;;;;;;4152823;28;20333;-64
2022/11/04 05:43:51;;;;;;;41.63;21.27;;;3.80;99.90;;;;;;4149837;28;20743;-66
2022/11/04 05:45:52;;;;;;;43.67;20.40;;;3.80;99.90;;;;;;4153905;28;20349;-64
2022/11/04 05:48:00;;;;;;;43.47;22.30;;;3.90;99.90;;;;;;4147615;28;20757;-64
2022/11/04 05:50:02;;;;;;;39.83;22.50;;;4.00;99.90;;;;;;4151926;28;20272;-63
2022/11/04 05:52:04;;;;;;;55.93;24.43;;;4.00;99.90;;;;;;4153383;28;20275;-66
2022/11/04 05:54:05;;;;;;;45.97;22.90;;;4.00;99.90;;;;;;4155610;28;20337;-63
2022/11/04 05:56:07;;;;;;;58.57;24.47;;;4.10;99.90;;;;;;4155073;28;20357;-62
2022/11/04 05:58:08;;;;;;;51.87;24.93;;;4.10;99.90;;;;;;4145848;28;20291;-67
2022/11/04 06:00:12;;;;;;;56.97;24.33;;;4.10;99.90;;;;;;4146705;28;20314;-66
2022/11/04 06:02:13;;;;;;;47.23;24.13;;;4.10;99.90;;;;;;4144452;28;20276;-64
2022/11/04 06:04:16;;;;;;;64.20;25.73;;;4.20;99.90;;;;;;4154160;28;20317;-65
2022/11/04 06:06:18;;;;;;;57.07;25.33;;;4.20;99.90;;;;;;4159667;28;20287;-63
2022/11/04 06:08:19;;;;;;;50.00;23.30;;;4.20;99.90;;;;;;4155492;28;20348;-64
2022/11/04 06:10:20;;;;;;;45.43;21.80;;;4.20;99.90;;;;;;4159050;28;20320;-66
2022/11/04 06:12:21;;;;;;;45.47;23.73;;;4.20;99.90;;;;;;4161564;28;20255;-65
2022/11/04 06:14:23;;;;;;;43.23;21.20;;;4.20;99.90;;;;;;4160681;28;20291;-65
2022/11/04 06:16:25;;;;;;;41.13;21.57;;;4.20;99.90;;;;;;4161070;28;20289;-67
2022/11/04 06:18:26;;;;;;;41.87;20.93;;;4.20;99.90;;;;;;4160920;28;20263;-65
2022/11/04 06:20:27;;;;;;;50.77;22.10;;;4.30;99.90;;;;;;4160582;28;20270;-64
2022/11/04 06:22:28;;;;;;;41.93;21.27;;;4.40;99.90;;;;;;4160970;28;20316;-68
2022/11/04 06:24:29;;;;;;;52.30;24.33;;;4.40;99.90;;;;;;4160225;28;20284;-64
2022/11/04 06:26:31;;;;;;;55.07;24.63;;;4.50;99.90;;;;;;4160518;28;20282;-63
2022/11/04 06:28:32;;;;;;;47.87;24.33;;;4.50;99.90;;;;;;4160004;28;20370;-64
2022/11/04 06:30:33;;;;;;;55.87;24.37;;;4.60;99.90;;;;;;4160059;28;20294;-65
2022/11/04 06:32:34;;;;;;;47.20;24.73;;;4.60;99.90;;;;;;4159594;28;20666;-65
2022/11/04 06:34:36;;;;;;;49.77;23.30;;;4.60;99.90;;;;;;4160964;28;20271;-65
2022/11/04 06:36:37;;;;;;;40.17;21.93;;;4.60;99.90;;;;;;4159107;28;20045;-64
2022/11/04 06:38:38;;;;;;;44.33;22.20;;;4.60;99.90;;;;;;4159891;28;20279;-68
2022/11/04 06:40:40;;;;;;;35.37;18.77;;;4.70;99.90;;;;;;4159886;28;20271;-64
2022/11/04 06:42:41;;;;;;;36.53;18.90;;;4.70;99.90;;;;;;4160120;28;20333;-66
2022/11/04 06:44:43;;;;;;;38.07;18.77;;;4.70;99.90;;;;;;4159081;28;20087;-65
2022/11/04 06:46:44;;;;;;;34.97;18.73;;;4.90;99.90;;;;;;4160543;28;20271;-64
2022/11/04 06:48:45;;;;;;;33.17;16.53;;;4.90;99.90;;;;;;4160265;28;20348;-66
2022/11/04 06:50:46;;;;;;;32.60;16.23;;;5.00;99.90;;;;;;4159531;28;20282;-65
2022/11/04 06:52:47;;;;;;;33.90;16.17;;;5.10;99.90;;;;;;4160641;28;20034;-64
2022/11/04 06:54:49;;;;;;;31.63;16.77;;;5.10;99.90;;;;;;4144896;28;20104;-67
2022/11/04 06:56:50;;;;;;;28.57;15.83;;;5.20;99.90;;;;;;4164357;28;20038;-64
2022/11/04 06:58:52;;;;;;;30.00;16.50;;;5.20;99.90;;;;;;4163196;28;20805;-64
2022/11/04 07:00:53;;;;;;;31.40;15.67;;;5.30;99.90;;;;;;4163605;28;20041;-65
2022/11/04 07:02:54;;;;;;;31.70;15.10;;;5.30;99.90;;;;;;4162009;28;20041;-64
2022/11/04 07:04:56;;;;;;;37.17;15.53;;;5.30;99.90;;;;;;4164332;28;20080;-65
2022/11/04 07:06:57;;;;;;;23.70;14.23;;;5.40;99.90;;;;;;4162433;28;20426;-64
2022/11/04 07:09:00;;;;;;;36.23;14.90;;;5.50;99.90;;;;;;4146104;28;20034;-65
2022/11/04 07:11:02;;;;;;;25.47;15.20;;;5.60;99.90;;;;;;4162057;28;20041;-64
2022/11/04 07:13:04;;;;;;;23.97;14.03;;;5.80;99.90;;;;;;4164071;28;20025;-64
2022/11/04 07:15:06;;;;;;;23.93;15.03;;;5.90;99.90;;;;;;4162302;28;20100;-65
2022/11/04 07:17:07;;;;;;;33.70;15.53;;;6.00;99.90;;;;;;4163229;28;20042;-66
2022/11/04 07:19:08;;;;;;;24.90;13.90;;;6.10;99.90;;;;;;4162532;28;20025;-67
2022/11/04 07:21:11;;;;;;;29.20;14.73;;;6.10;99.90;;;;;;4163099;28;20034;-67
2022/11/04 07:23:12;;;;;;;24.70;13.63;;;6.20;99.90;;;;;;4162705;28;20034;-66
2022/11/04 07:25:13;;;;;;;24.80;14.73;;;6.20;99.90;;;;;;4163312;28;20087;-66
2022/11/04 07:27:15;;;;;;;29.37;14.50;;;6.30;99.90;;;;;;4163770;28;20076;-66
2022/11/04 07:29:16;;;;;;;27.67;14.30;;;6.40;99.90;;;;;;4162769;28;20111;-66
2022/11/04 07:31:17;;;;;;;23.67;13.27;;;6.40;99.90;;;;;;4162930;28;20536;-65
2022/11/04 07:33:18;;;;;;;27.90;14.20;;;6.60;99.90;;;;;;4162096;28;20053;-67
2022/11/04 07:35:19;;;;;;;24.87;13.87;;;6.70;99.90;;;;;;4163219;28;20038;-64
2022/11/04 07:37:21;;;;;;;24.90;13.57;;;6.90;99.90;;;;;;4162712;28;20095;-63
2022/11/04 07:39:22;;;;;;;27.73;15.70;;;7.00;99.90;;;;;;4163424;28;20076;-64
2022/11/04 07:41:23;;;;;;;27.30;14.10;;;7.00;99.90;;;;;;4161991;28;20536;-65
2022/11/04 07:43:24;;;;;;;25.47;13.97;;;7.20;99.90;;;;;;4163234;28;20033;-64
2022/11/04 07:45:26;;;;;;;19.73;12.20;;;7.30;99.90;;;;;;4161875;28;20034;-63
2022/11/04 07:47:30;;;;;;;21.63;11.50;;;7.30;99.90;;;;;;4162373;28;20099;-64
2022/11/04 07:49:31;;;;;;;21.07;12.60;;;7.30;99.90;;;;;;4162893;28;20037;-65
2022/11/04 07:51:32;;;;;;;25.77;12.73;;;7.30;99.90;;;;;;4145681;28;20113;-64
2022/11/04 07:53:34;;;;;;;23.77;11.97;;;7.30;99.90;;;;;;4162977;28;20109;-64
2022/11/04 07:55:37;;;;;;;25.53;12.93;;;7.40;99.90;;;;;;4163127;28;20359;-64
2022/11/04 07:57:38;;;;;;;23.23;12.60;;;7.40;99.90;;;;;;4162767;28;20420;-66
2022/11/04 07:59:39;;;;;;;24.33;12.50;;;7.50;99.90;;;;;;4162534;28;20029;-66
2022/11/04 08:01:40;;;;;;;23.67;12.87;;;7.60;99.90;;;;;;4163411;28;20030;-64
2022/11/04 08:03:42;;;;;;;20.43;12.90;;;7.70;99.90;;;;;;4162406;28;20037;-65
2022/11/04 08:05:43;;;;;;;28.70;14.30;;;7.70;99.90;;;;;;4162440;28;20423;-65
2022/11/04 08:07:44;;;;;;;20.93;12.67;;;7.90;99.90;;;;;;4161461;28;20041;-65
2022/11/04 08:09:45;;;;;;;26.63;13.27;;;8.00;99.90;;;;;;4163781;28;20179;-67
2022/11/04 08:11:46;;;;;;;28.80;13.57;;;8.00;99.90;;;;;;4161576;28;20037;-66
2022/11/04 08:13:47;;;;;;;25.03;12.40;;;8.00;99.90;;;;;;4162574;28;20486;-66
2022/11/04 08:15:48;;;;;;;22.57;12.07;;;8.00;99.90;;;;;;4162070;28;20080;-67
2022/11/04 08:17:49;;;;;;;23.07;12.60;;;8.10;99.90;;;;;;4163101;28;20105;-66
2022/11/04 08:19:51;;;;;;;25.13;13.83;;;8.10;99.90;;;;;;4162049;28;20098;-65
2022/11/04 08:21:52;;;;;;;23.90;12.37;;;8.10;99.90;;;;;;4162221;28;20042;-66
2022/11/04 08:23:53;;;;;;;23.80;14.37;;;8.30;99.90;;;;;;4161815;28;20443;-65
2022/11/04 08:25:55;;;;;;;23.57;14.10;;;8.40;99.90;;;;;;4162563;28;20037;-65
2022/11/04 08:27:56;;;;;;;26.50;15.20;;;8.40;99.90;;;;;;4161841;28;20500;-63
2022/11/04 08:29:57;;;;;;;21.97;13.73;;;8.40;99.90;;;;;;4161973;28;20087;-63
2022/11/04 08:31:59;;;;;;;25.10;13.53;;;8.50;99.90;;;;;;4162788;28;20429;-64
2022/11/04 08:34:00;;;;;;;23.33;13.27;;;8.50;99.90;;;;;;4143703;28;20118;-65
2022/11/04 08:36:08;;;;;;;20.07;12.40;;;8.50;99.90;;;;;;4162216;28;20048;-63
2022/11/04 08:38:09;;;;;;;23.37;13.27;;;8.30;99.90;;;;;;4161762;28;20091;-63
2022/11/04 08:40:10;;;;;;;27.87;14.20;;;8.30;99.90;;;;;;4163064;28;20026;-64
2022/11/04 08:42:11;;;;;;;20.30;11.47;;;8.30;99.90;;;;;;4161775;28;20025;-65
2022/11/04 08:44:13;;;;;;;19.47;12.17;;;8.40;99.90;;;;;;4162976;28;20091;-66
2022/11/04 08:46:15;;;;;;;24.53;12.67;;;8.40;99.90;;;;;;4160952;28;20037;-64
2022/11/04 08:48:16;;;;;;;27.53;12.80;;;8.40;99.90;;;;;;4162716;28;20037;-64
2022/11/04 08:50:18;;;;;;;23.43;13.03;;;8.40;99.90;;;;;;4160827;28;20417;-63
2022/11/04 08:52:19;;;;;;;25.03;12.23;;;8.50;99.90;;;;;;4162398;28;20080;-65
2022/11/04 08:54:21;;;;;;;18.87;12.13;;;8.50;99.90;;;;;;4161137;28;20501;-65
2022/11/04 08:56:29;;;;;;;27.53;13.20;;;8.50;99.90;;;;;;4162045;28;20025;-67
2022/11/04 08:58:30;;;;;;;24.60;11.80;;;8.50;99.90;;;;;;4161354;28;20413;-65
2022/11/04 09:00:31;;;;;;;20.57;12.13;;;8.40;99.90;;;;;;4161639;28;20031;-67
2022/11/04 09:02:33;;;;;;;19.90;11.97;;;8.40;99.90;;;;;;4161041;28;20037;-65
2022/11/04 09:04:34;;;;;;;22.43;11.57;;;8.40;99.90;;;;;;4161161;28;20428;-65
2022/11/04 09:06:38;;;;;;;24.43;11.60;;;8.40;99.90;;;;;;4162193;28;20580;-66
2022/11/04 09:08:42;;;;;;;22.87;13.27;;;8.50;99.90;;;;;;4160719;28;20441;-66
2022/11/04 09:10:44;;;;;;;21.20;11.57;;;8.60;99.90;;;;;;4162382;28;20428;-65
2022/11/04 09:12:46;;;;;;;27.70;13.50;;;8.60;99.90;;;;;;4160467;28;20125;-64
2022/11/04 09:14:47;;;;;;;23.30;12.43;;;8.70;99.90;;;;;;4161523;28;20061;-64
2022/11/04 09:16:48;;;;;;;25.87;12.67;;;8.80;99.90;;;;;;4160130;28;20049;-63
2022/11/04 09:18:49;;;;;;;27.50;14.03;;;8.90;99.90;;;;;;4161195;28;20037;-63
2022/11/04 09:20:50;;;;;;;25.87;13.60;;;9.00;99.90;;;;;;4160567;28;20045;-64
2022/11/04 09:22:52;;;;;;;24.83;13.60;;;9.00;99.90;;;;;;4162571;28;20436;-65
2022/11/04 09:24:53;;;;;;;30.10;13.03;;;9.20;99.90;;;;;;4161146;28;20846;-63
2022/11/04 09:26:54;;;;;;;25.93;14.00;;;9.30;99.90;;;;;;4161334;28;20083;-65
2022/11/04 09:28:57;;;;;;;26.00;14.07;;;9.30;99.90;;;;;;4160746;28;20056;-63
2022/11/04 09:30:58;;;;;;;26.20;13.87;;;9.30;99.90;;;;;;4160603;28;20083;-63
2022/11/04 09:32:59;;;;;;;26.37;14.03;;;9.30;99.90;;;;;;4161079;28;20076;-63
2022/11/04 09:35:00;;;;;;;27.40;14.33;;;9.30;99.90;;;;;;4161087;28;20041;-65
2022/11/04 09:37:01;;;;;;;29.20;13.97;;;9.30;99.90;;;;;;4161685;28;20440;-64
2022/11/04 09:39:03;;;;;;;20.60;12.80;;;9.40;99.90;;;;;;4160665;28;20515;-64
2022/11/04 09:41:18;;;;;;;23.93;13.33;;;9.30;99.90;;;;;;4161077;28;20041;-65
2022/11/04 09:43:55;;;;;;;27.07;14.47;;;9.30;99.90;;;;;;4142356;28;20038;-64
2022/11/04 09:45:58;;;;;;;28.93;13.97;;;9.20;99.90;;;;;;4159913;28;20045;-65
2022/11/04 09:48:06;;;;;;;30.47;14.67;;;9.30;99.90;;;;;;4141683;28;20038;-66
2022/11/04 09:50:14;;;;;;;31.50;13.27;;;9.40;99.90;;;;;;4144854;28;20037;-64
2022/11/04 09:52:20;;;;;;;25.47;12.77;;;9.50;99.90;;;;;;4144128;28;20042;-65
2022/11/04 09:54:48;;;;;;;24.93;11.97;;;9.60;99.90;;;;;;4144456;28;20045;-65
2022/11/04 09:56:51;;;;;;;18.17;12.17;;;9.70;99.90;;;;;;4140937;28;20092;-64
2022/11/04 09:58:53;;;;;;;21.47;12.93;;;9.80;99.90;;;;;;4144276;28;20108;-64
2022/11/04 10:01:05;;;;;;;26.70;12.97;;;9.80;99.90;;;;;;4143963;28;20046;-68
2022/11/04 10:03:27;;;;;;;23.83;13.40;;;9.90;99.90;;;;;;4144645;28;20445;-64
2022/11/04 10:05:34;;;;;;;25.80;13.77;;;9.90;99.90;;;;;;4144701;28;20046;-66
2022/11/04 10:08:12;;;;;;;25.27;14.27;;;10.00;99.90;;;;;;4144656;28;20033;-66
2022/11/04 10:10:44;;;;;;;20.93;12.80;;;10.10;99.90;;;;;;4145179;28;20022;-65
2022/11/04 10:13:00;;;;;;;23.13;12.27;;;10.00;99.90;;;;;;4144033;28;20030;-65
2022/11/04 10:15:08;;;;;;;22.60;13.63;;;9.90;99.90;;;;;;4144845;28;20430;-65
2022/11/04 10:17:23;;;;;;;28.83;14.67;;;9.90;99.90;;;;;;4143789;28;20483;-64
2022/11/04 10:19:50;;;;;;;26.90;13.93;;;10.00;99.90;;;;;;4144994;28;20095;-63
2022/11/04 10:22:04;;;;;;;22.17;13.03;;;10.10;99.90;;;;;;4134942;28;20088;-64
2022/11/04 10:24:12;;;;;;;21.60;12.83;;;10.20;99.90;;;;;;4144873;28;20033;-64
2022/11/04 10:26:49;;;;;;;26.97;14.00;;;10.30;99.90;;;;;;4143136;28;20409;-66
2022/11/04 10:29:00;;;;;;;25.10;13.70;;;10.30;99.90;;;;;;4143804;28;20030;-63
2022/11/04 10:31:02;;;;;;;24.13;13.63;;;10.50;99.90;;;;;;4143667;28;20108;-65
2022/11/04 10:33:26;;;;;;;23.43;14.70;;;10.40;99.90;;;;;;4144532;28;20033;-65
2022/11/04 10:35:45;;;;;;;29.23;14.73;;;10.50;99.90;;;;;;4143596;28;20479;-64
2022/11/04 10:37:52;;;;;;;22.80;12.63;;;10.50;99.90;;;;;;4144404;28;20508;-65
2022/11/04 10:40:05;;;;;;;21.27;11.67;;;10.50;99.90;;;;;;4144126;28;20025;-64
2022/11/04 10:42:06;;;;;;;22.00;12.60;;;10.50;99.90;;;;;;4143939;28;20041;-64
2022/11/04 10:44:30;;;;;;;24.23;12.60;;;10.40;99.90;;;;;;4144034;28;20029;-65
2022/11/04 10:46:40;;;;;;;20.13;11.10;;;10.40;99.90;;;;;;4143096;28;20041;-66
2022/11/04 10:48:48;;;;;;;23.23;12.55;;;10.50;99.90;;;;;;4154452;28;20088;-65
2022/11/04 10:50:55;;;;;;;29.53;13.70;;;10.50;99.90;;;;;;4160157;28;20083;-65
2022/11/04 10:53:23;;;;;;;23.03;13.33;;;10.60;99.90;;;;;;4159432;28;20037;-65
2022/11/04 10:55:40;;;;;;;31.03;14.37;;;10.60;99.90;;;;;;4159926;28;20038;-64
2022/11/04 10:57:42;;;;;;;23.97;12.10;;;10.70;99.90;;;;;;4160560;28;20030;-66
2022/11/04 11:00:00;;;;;;;24.53;12.73;;;10.70;99.90;;;;;;4159448;28;20037;-64
2022/11/04 11:02:02;;;;;;;24.43;14.53;;;10.80;99.90;;;;;;4159863;28;20041;-65
2022/11/04 11:04:06;;;;;;;24.13;13.53;;;10.70;99.90;;;;;;4159957;28;20083;-67
2022/11/04 11:06:33;;;;;;;24.63;13.50;;;10.80;99.90;;;;;;4159836;28;20042;-66
2022/11/04 11:08:36;;;;;;;25.80;13.53;;;10.90;99.90;;;;;;4159819;28;20029;-66
2022/11/04 11:10:48;;;;;;;21.20;12.50;;;10.90;99.90;;;;;;4160644;28;20048;-66
2022/11/04 11:13:01;;;;;;;26.73;13.57;;;11.00;99.90;;;;;;4158776;28;20038;-65